createdAt,value
2018-11-01T00:00:28.522Z,4.10
2018-11-01T00:01:28.518Z,4.06
2018-11-01T00:02:28.499Z,4.11
2018-11-01T00:03:28.556Z,4.14
2018-11-01T00:04:28.478Z,4.18
2018-11-01T00:05:28.502Z,4.13
2018-11-01T00:06:28.460Z,4.28
2018-11-01T00:07:28.455Z,4.61
2018-11-01T00:08:28.470Z,4.68
2018-11-01T00:09:28.611Z,4.49
2018-11-01T00:10:28.421Z,4.28
2018-11-01T00:11:28.419Z,4.29
2018-11-01T00:12:28.405Z,4.13
2018-11-01T00:13:28.440Z,4.17
2018-11-01T00:14:28.383Z,4.08
2018-11-01T00:15:28.392Z,4.16
2018-11-01T00:16:28.377Z,4.21
2018-11-01T00:17:28.360Z,4.18
2018-11-01T00:18:28.361Z,4.18
2018-11-01T00:19:28.320Z,4.13
2018-11-01T00:20:28.313Z,4.28
2018-11-01T00:21:28.703Z,4.18
2018-11-01T00:22:30.430Z,4.08
2018-11-01T00:23:28.396Z,4.04
2018-11-01T00:24:37.041Z,3.96
2018-11-01T00:25:28.251Z,3.98
2018-11-01T00:26:28.285Z,3.99
2018-11-01T00:27:28.259Z,4.08
2018-11-01T00:28:28.224Z,4.07
2018-11-01T00:29:28.241Z,4.06
2018-11-01T00:30:28.267Z,4.20
2018-11-01T00:31:28.240Z,4.13
2018-11-01T00:32:28.197Z,4.08
2018-11-01T00:33:28.170Z,4.13
2018-11-01T00:34:28.166Z,4.07
2018-11-01T00:35:28.182Z,3.98
2018-11-01T00:36:28.154Z,4.00
2018-11-01T00:37:28.120Z,3.98
2018-11-01T00:38:28.115Z,4.06
2018-11-01T00:39:28.108Z,4.10
2018-11-01T00:40:28.138Z,4.07
2018-11-01T00:41:28.078Z,4.10
2018-11-01T00:42:28.082Z,3.98
2018-11-01T00:43:28.098Z,4.20
2018-11-01T00:44:28.042Z,4.32
2018-11-01T00:45:28.041Z,4.56
2018-11-01T00:46:28.027Z,4.56
2018-11-01T00:47:28.010Z,4.44
2018-11-01T00:48:27.997Z,4.75
2018-11-01T00:49:28.009Z,4.77
2018-11-01T00:50:27.996Z,4.75
2018-11-01T00:51:28.030Z,4.50
2018-11-01T00:52:27.952Z,4.32
2018-11-01T00:53:27.942Z,4.20
2018-11-01T00:54:27.932Z,4.10
2018-11-01T00:55:27.936Z,4.18
2018-11-01T00:56:27.982Z,4.26
2018-11-01T00:57:27.922Z,4.20
2018-11-01T00:58:27.934Z,4.24
2018-11-01T00:59:27.899Z,4.44
2018-11-01T01:00:27.896Z,4.26
2018-11-01T01:01:27.915Z,4.28
2018-11-01T01:02:27.848Z,4.18
2018-11-01T01:03:27.837Z,4.10
2018-11-01T01:04:27.828Z,4.08
2018-11-01T01:05:27.835Z,4.16
2018-11-01T01:06:27.840Z,4.18
2018-11-01T01:07:27.796Z,4.08
2018-11-01T01:08:27.809Z,4.10
2018-11-01T01:09:27.768Z,4.06
2018-11-01T01:10:27.765Z,4.04
2018-11-01T01:11:27.785Z,4.04
2018-11-01T01:12:27.751Z,3.96
2018-11-01T01:13:28.777Z,4.00
2018-11-01T01:14:30.581Z,4.10
2018-11-01T01:15:27.906Z,4.11
2018-11-01T01:16:28.763Z,4.13
2018-11-01T01:17:27.687Z,4.13
2018-11-01T01:18:27.681Z,4.20
2018-11-01T01:19:27.668Z,4.26
2018-11-01T01:20:27.675Z,4.36
2018-11-01T01:21:27.670Z,4.26
2018-11-01T01:22:27.648Z,4.29
2018-11-01T01:23:27.628Z,4.17
2018-11-01T01:24:27.635Z,4.10
2018-11-01T01:25:27.620Z,4.18
2018-11-01T01:26:27.798Z,4.10
2018-11-01T01:27:27.594Z,4.17
2018-11-01T01:28:27.564Z,4.08
2018-11-01T01:29:27.569Z,4.18
2018-11-01T01:30:27.544Z,4.17
2018-11-01T01:31:27.613Z,4.16
2018-11-01T01:32:27.583Z,4.67
2018-11-01T01:33:27.548Z,4.64
2018-11-01T01:34:27.604Z,4.54
2018-11-01T01:35:27.565Z,4.47
2018-11-01T01:36:27.519Z,4.34
2018-11-01T01:37:27.499Z,4.18
2018-11-01T01:38:27.487Z,4.18
2018-11-01T01:39:27.479Z,4.11
2018-11-01T01:40:27.471Z,3.99
2018-11-01T01:41:27.498Z,3.98
2018-11-01T01:42:27.465Z,4.06
2018-11-01T01:43:27.437Z,4.02
2018-11-01T01:44:27.394Z,4.04
2018-11-01T01:45:27.457Z,4.21
2018-11-01T01:46:27.408Z,4.35
2018-11-01T01:47:27.377Z,4.25
2018-11-01T01:48:27.390Z,4.42
2018-11-01T01:49:27.338Z,4.43
2018-11-01T01:50:27.432Z,4.34
2018-11-01T01:51:27.352Z,4.26
2018-11-01T01:52:27.356Z,4.46
2018-11-01T01:53:27.317Z,4.68
2018-11-01T01:54:27.341Z,5.02
2018-11-01T01:55:27.326Z,4.83
2018-11-01T01:56:27.266Z,5.15
2018-11-01T01:57:27.284Z,5.40
2018-11-01T01:58:27.258Z,5.33
2018-11-01T01:59:27.259Z,5.11
2018-11-01T02:00:27.305Z,4.86
2018-11-01T02:01:27.242Z,5.06
2018-11-01T02:02:27.257Z,4.72
2018-11-01T02:03:27.204Z,4.56
2018-11-01T02:04:27.177Z,4.56
2018-11-01T02:05:27.179Z,4.56
2018-11-01T02:06:27.190Z,4.53
2018-11-01T02:07:27.205Z,4.53
2018-11-01T02:08:27.187Z,4.56
2018-11-01T02:09:27.140Z,4.74
2018-11-01T02:10:28.013Z,4.84
2018-11-01T02:11:27.136Z,4.83
2018-11-01T02:12:27.132Z,4.84
2018-11-01T02:13:27.104Z,4.83
2018-11-01T02:14:27.072Z,4.97
2018-11-01T02:15:27.054Z,5.04
2018-11-01T02:16:27.058Z,5.06
2018-11-01T02:17:27.103Z,5.23
2018-11-01T02:18:27.080Z,5.42
2018-11-01T02:19:27.043Z,5.59
2018-11-01T02:20:27.057Z,5.24
2018-11-01T02:21:27.051Z,5.24
2018-11-01T02:22:27.014Z,5.01
2018-11-01T02:23:27.020Z,4.94
2018-11-01T02:24:27.007Z,4.77
2018-11-01T02:25:26.947Z,4.72
2018-11-01T02:26:26.944Z,4.96
2018-11-01T02:27:26.958Z,4.90
2018-11-01T02:28:26.960Z,4.80
2018-11-01T02:29:26.911Z,4.87
2018-11-01T02:30:26.908Z,4.90
2018-11-01T02:31:26.974Z,4.80
2018-11-01T02:32:26.877Z,4.80
2018-11-01T02:33:26.898Z,4.68
2018-11-01T02:34:26.879Z,4.64
2018-11-01T02:35:26.883Z,4.56
2018-11-01T02:36:26.862Z,4.74
2018-11-01T02:37:26.844Z,4.88
2018-11-01T02:38:26.895Z,5.04
2018-11-01T02:39:26.795Z,5.35
2018-11-01T02:40:26.789Z,5.23
2018-11-01T02:41:26.818Z,4.93
2018-11-01T02:42:26.791Z,4.91
2018-11-01T02:43:26.768Z,4.96
2018-11-01T02:44:26.761Z,4.86
2018-11-01T02:45:26.732Z,5.06
2018-11-01T02:46:26.779Z,5.11
2018-11-01T02:47:26.716Z,5.06
2018-11-01T02:48:26.711Z,4.93
2018-11-01T02:49:26.707Z,4.87
2018-11-01T02:50:26.685Z,5.11
2018-11-01T02:51:26.707Z,5.05
2018-11-01T02:52:26.677Z,4.87
2018-11-01T02:53:26.677Z,4.84
2018-11-01T02:54:26.633Z,4.83
2018-11-01T02:55:26.641Z,5.04
2018-11-01T02:56:26.655Z,5.14
2018-11-01T02:57:26.604Z,5.51
2018-11-01T02:58:26.614Z,5.52
2018-11-01T02:59:26.626Z,5.41
2018-11-01T03:00:26.586Z,5.59
2018-11-01T03:01:26.596Z,5.63
2018-11-01T03:02:26.549Z,5.74
2018-11-01T03:03:26.546Z,5.66
2018-11-01T03:04:26.551Z,5.85
2018-11-01T03:05:26.534Z,6.13
2018-11-01T03:06:26.557Z,5.95
2018-11-01T03:07:26.488Z,6.06
2018-11-01T03:08:26.492Z,6.11
2018-11-01T03:09:26.476Z,6.17
2018-11-01T03:10:26.461Z,6.16
2018-11-01T03:11:26.497Z,5.78
2018-11-01T03:12:26.468Z,5.48
2018-11-01T03:13:26.465Z,5.59
2018-11-01T03:14:26.429Z,5.47
2018-11-01T03:15:26.424Z,5.38
2018-11-01T03:16:26.396Z,5.62
2018-11-01T03:17:26.405Z,5.59
2018-11-01T03:18:26.429Z,5.69
2018-11-01T03:19:26.366Z,5.52
2018-11-01T03:20:26.359Z,5.51
2018-11-01T03:21:26.445Z,5.42
2018-11-01T03:22:26.341Z,5.56
2018-11-01T03:23:26.357Z,5.58
2018-11-01T03:24:26.330Z,5.62
2018-11-01T03:25:26.298Z,5.67
2018-11-01T03:26:26.402Z,5.77
2018-11-01T03:27:26.288Z,5.95
2018-11-01T03:28:26.295Z,6.13
2018-11-01T03:29:26.261Z,5.99
2018-11-01T03:30:26.257Z,5.93
2018-11-01T03:31:26.279Z,5.81
2018-11-01T03:32:26.249Z,5.75
2018-11-01T03:33:26.353Z,5.84
2018-11-01T03:34:26.257Z,6.16
2018-11-01T03:35:26.198Z,6.11
2018-11-01T03:36:26.189Z,5.95
2018-11-01T03:37:26.183Z,6.06
2018-11-01T03:38:26.371Z,6.13
2018-11-01T03:39:26.210Z,6.21
2018-11-01T03:40:26.147Z,6.10
2018-11-01T03:41:26.122Z,6.13
2018-11-01T03:42:26.151Z,6.11
2018-11-01T03:43:26.112Z,6.05
2018-11-01T03:44:26.114Z,6.05
2018-11-01T03:45:26.132Z,6.08
2018-11-01T03:46:26.116Z,6.10
2018-11-01T03:47:26.070Z,6.05
2018-11-01T03:48:26.063Z,6.10
2018-11-01T03:49:26.041Z,5.88
2018-11-01T03:50:26.081Z,6.06
2018-11-01T03:51:26.031Z,6.02
2018-11-01T03:52:26.030Z,6.19
2018-11-01T03:53:26.031Z,6.17
2018-11-01T03:54:25.997Z,6.16
2018-11-01T03:55:26.061Z,6.25
2018-11-01T03:56:25.982Z,6.28
2018-11-01T03:57:25.964Z,6.10
2018-11-01T03:58:25.944Z,5.87
2018-11-01T03:59:25.933Z,6.08
2018-11-01T04:00:25.959Z,6.19
2018-11-01T04:01:25.914Z,5.95
2018-11-01T04:02:25.936Z,6.21
2018-11-01T04:03:25.929Z,6.33
2018-11-01T04:04:25.916Z,6.51
2018-11-01T04:05:25.919Z,6.45
2018-11-01T04:06:25.860Z,6.43
2018-11-01T04:07:25.877Z,6.24
2018-11-01T04:08:25.836Z,6.02
2018-11-01T04:09:25.845Z,5.98
2018-11-01T04:10:25.859Z,5.90
2018-11-01T04:11:25.817Z,6.14
2018-11-01T04:12:25.792Z,6.17
2018-11-01T04:13:25.859Z,6.13
2018-11-01T04:14:25.796Z,6.20
2018-11-01T04:15:25.814Z,6.21
2018-11-01T04:16:25.807Z,6.46
2018-11-01T04:17:25.739Z,6.42
2018-11-01T04:18:25.737Z,6.42
2018-11-01T04:19:25.727Z,6.28
2018-11-01T04:20:25.714Z,6.21
2018-11-01T04:21:25.742Z,6.11
2018-11-01T04:22:25.703Z,6.06
2018-11-01T04:23:25.986Z,5.99
2018-11-01T04:24:25.665Z,6.03
2018-11-01T04:25:25.670Z,5.98
2018-11-01T04:26:25.654Z,5.90
2018-11-01T04:27:25.633Z,6.05
2018-11-01T04:28:25.667Z,6.13
2018-11-01T04:29:25.626Z,6.06
2018-11-01T04:30:25.597Z,6.13
2018-11-01T04:31:25.622Z,6.20
2018-11-01T04:32:25.627Z,6.14
2018-11-01T04:33:25.811Z,6.03
2018-11-01T04:34:25.559Z,6.06
2018-11-01T04:35:25.615Z,6.20
2018-11-01T04:36:25.616Z,6.16
2018-11-01T04:37:25.530Z,6.05
2018-11-01T04:38:25.560Z,5.77
2018-11-01T04:39:25.512Z,5.80
2018-11-01T04:40:25.538Z,5.66
2018-11-01T04:41:25.510Z,5.56
2018-11-01T04:42:25.478Z,5.47
2018-11-01T04:43:25.520Z,5.35
2018-11-01T04:44:25.473Z,5.06
2018-11-01T04:45:25.504Z,4.90
2018-11-01T04:46:25.486Z,4.71
2018-11-01T04:47:25.516Z,4.74
2018-11-01T04:48:25.412Z,4.83
2018-11-01T04:49:25.407Z,4.71
2018-11-01T04:50:25.434Z,4.46
2018-11-01T04:51:25.381Z,4.51
2018-11-01T04:52:25.402Z,4.38
2018-11-01T04:53:25.354Z,4.38
2018-11-01T04:54:25.340Z,4.50
2018-11-01T04:55:25.369Z,4.44
2018-11-01T04:56:25.342Z,4.32
2018-11-01T04:57:25.309Z,4.28
2018-11-01T04:58:25.344Z,4.28
2018-11-01T04:59:25.311Z,4.26
2018-11-01T05:00:25.328Z,4.42
2018-11-01T05:01:25.287Z,4.47
2018-11-01T05:02:25.278Z,4.44
2018-11-01T05:03:25.275Z,4.28
2018-11-01T05:04:25.260Z,4.11
2018-11-01T05:05:25.271Z,4.00
2018-11-01T05:06:25.223Z,3.95
2018-11-01T05:07:25.257Z,3.78
2018-11-01T05:08:25.220Z,3.78
2018-11-01T05:09:25.189Z,3.86
2018-11-01T05:10:25.171Z,3.86
2018-11-01T05:11:25.167Z,3.80
2018-11-01T05:12:25.218Z,3.93
2018-11-01T05:13:25.152Z,4.07
2018-11-01T05:14:25.139Z,4.14
2018-11-01T05:15:25.244Z,4.11
2018-11-01T05:16:25.116Z,4.07
2018-11-01T05:17:25.132Z,4.04
2018-11-01T05:18:25.085Z,3.89
2018-11-01T05:19:25.085Z,3.82
2018-11-01T05:20:25.123Z,3.78
2018-11-01T05:21:25.078Z,3.75
2018-11-01T05:22:25.058Z,3.74
2018-11-01T05:23:25.060Z,3.81
2018-11-01T05:24:25.055Z,3.77
2018-11-01T05:25:25.004Z,3.88
2018-11-01T05:26:24.994Z,3.62
2018-11-01T05:27:25.205Z,3.54
2018-11-01T05:28:31.958Z,3.44
2018-11-01T05:29:25.230Z,3.42
2018-11-01T05:30:25.066Z,3.39
2018-11-01T05:31:25.030Z,3.37
2018-11-01T05:32:24.963Z,3.30
2018-11-01T05:33:24.980Z,3.41
2018-11-01T05:34:25.022Z,3.26
2018-11-01T05:35:24.959Z,3.39
2018-11-01T05:36:25.007Z,3.41
2018-11-01T05:37:24.879Z,3.46
2018-11-01T05:38:24.868Z,3.34
2018-11-01T05:39:24.861Z,3.39
2018-11-01T05:40:24.849Z,3.50
2018-11-01T05:41:24.872Z,3.54
2018-11-01T05:42:24.854Z,3.44
2018-11-01T05:43:24.845Z,3.39
2018-11-01T05:44:24.827Z,3.22
2018-11-01T05:45:24.832Z,3.16
2018-11-01T05:46:24.850Z,3.16
2018-11-01T05:47:24.817Z,3.13
2018-11-01T05:48:24.784Z,3.10
2018-11-01T05:49:24.745Z,3.15
2018-11-01T05:50:24.751Z,3.20
2018-11-01T05:51:24.736Z,3.10
2018-11-01T05:52:24.756Z,3.04
2018-11-01T05:53:24.716Z,3.08
2018-11-01T05:54:24.724Z,3.12
2018-11-01T05:55:24.685Z,3.10
2018-11-01T05:56:24.684Z,3.10
2018-11-01T05:57:35.285Z,3.15
2018-11-01T05:58:25.881Z,3.13
2018-11-01T05:59:24.647Z,3.04
2018-11-01T06:00:24.651Z,3.05
2018-11-01T06:01:24.651Z,3.10
2018-11-01T06:02:24.620Z,3.15
2018-11-01T06:03:24.642Z,3.16
2018-11-01T06:04:24.583Z,3.07
2018-11-01T06:05:24.597Z,3.12
2018-11-01T06:06:24.612Z,3.13
2018-11-01T06:07:24.554Z,3.08
2018-11-01T06:08:24.578Z,3.12
2018-11-01T06:09:24.535Z,3.12
2018-11-01T06:10:33.195Z,3.05
2018-11-01T06:11:36.144Z,3.08
2018-11-01T06:12:33.864Z,3.02
2018-11-01T06:13:24.564Z,3.04
2018-11-01T06:14:37.394Z,3.05
2018-11-01T06:15:33.333Z,3.04
2018-11-01T06:16:42.890Z,3.05
2018-11-01T06:18:45.583Z,3.05
2018-11-01T06:19:46.171Z,2.98
2018-11-01T06:20:45.232Z,2.97
2018-11-01T06:21:45.053Z,2.89
2018-11-01T06:22:45.010Z,3.10
2018-11-01T06:23:45.044Z,3.19
2018-11-01T06:24:45.046Z,3.28
2018-11-01T06:25:44.987Z,3.22
2018-11-01T06:26:44.991Z,3.10
2018-11-01T06:27:44.955Z,3.02
2018-11-01T06:28:44.991Z,3.01
2018-11-01T06:29:45.004Z,3.02
2018-11-01T06:30:44.971Z,3.10
2018-11-01T06:31:44.931Z,3.12
2018-11-01T06:32:44.947Z,3.01
2018-11-01T06:33:44.899Z,2.87
2018-11-01T06:34:44.882Z,2.87
2018-11-01T06:35:44.930Z,2.94
2018-11-01T06:36:44.867Z,3.05
2018-11-01T06:37:44.902Z,3.12
2018-11-01T06:38:44.857Z,3.04
2018-11-01T06:39:44.826Z,3.04
2018-11-01T06:40:44.848Z,3.01
2018-11-01T06:41:44.842Z,3.02
2018-11-01T06:42:44.856Z,2.89
2018-11-01T06:43:44.790Z,2.90
2018-11-01T06:44:44.971Z,2.90
2018-11-01T06:45:44.833Z,3.02
2018-11-01T06:46:44.807Z,2.81
2018-11-01T06:47:44.836Z,2.86
2018-11-01T06:48:44.904Z,2.95
2018-11-01T06:49:44.763Z,2.89
2018-11-01T06:50:44.718Z,2.87
2018-11-01T06:51:44.725Z,2.86
2018-11-01T06:52:44.687Z,2.86
2018-11-01T06:53:44.758Z,2.80
2018-11-01T06:54:44.900Z,2.92
2018-11-01T06:55:44.687Z,2.76
2018-11-01T06:56:44.660Z,2.79
2018-11-01T06:57:44.645Z,2.79
2018-11-01T06:58:44.771Z,2.86
2018-11-01T06:59:44.660Z,2.84
2018-11-01T07:00:44.604Z,2.94
2018-11-01T07:01:44.633Z,2.83
2018-11-01T07:02:44.577Z,2.86
2018-11-01T07:03:44.650Z,2.89
2018-11-01T07:04:44.614Z,2.81
2018-11-01T07:05:44.640Z,2.84
2018-11-01T07:06:44.551Z,2.87
2018-11-01T07:07:44.523Z,2.73
2018-11-01T07:08:44.569Z,2.76
2018-11-01T07:09:44.560Z,2.81
2018-11-01T07:10:44.572Z,2.73
2018-11-01T07:11:44.505Z,2.69
2018-11-01T07:12:44.493Z,2.68
2018-11-01T07:13:44.463Z,2.69
2018-11-01T07:14:44.535Z,2.74
2018-11-01T07:15:44.445Z,2.73
2018-11-01T07:16:44.434Z,2.73
2018-11-01T07:17:44.617Z,2.73
2018-11-01T07:18:44.456Z,2.79
2018-11-01T07:19:44.485Z,2.76
2018-11-01T07:20:44.913Z,2.81
2018-11-01T07:21:44.425Z,2.74
2018-11-01T07:22:44.366Z,2.68
2018-11-01T07:23:44.354Z,2.59
2018-11-01T07:24:44.457Z,2.69
2018-11-01T07:25:44.415Z,2.80
2018-11-01T07:26:44.469Z,2.79
2018-11-01T07:27:44.343Z,2.76
2018-11-01T07:28:44.363Z,2.81
2018-11-01T07:29:44.406Z,2.71
2018-11-01T07:30:44.308Z,2.73
2018-11-01T07:31:44.328Z,2.69
2018-11-01T07:32:44.385Z,2.74
2018-11-01T07:33:44.253Z,2.80
2018-11-01T07:34:44.319Z,2.71
2018-11-01T07:35:44.254Z,2.73
2018-11-01T07:36:44.280Z,2.71
2018-11-01T07:37:44.218Z,2.77
2018-11-01T07:38:44.375Z,2.77
2018-11-01T07:39:44.271Z,2.68
2018-11-01T07:40:44.199Z,2.76
2018-11-01T07:41:44.211Z,2.73
2018-11-01T07:42:44.160Z,2.56
2018-11-01T07:43:44.174Z,2.63
2018-11-01T07:44:44.137Z,2.62
2018-11-01T07:45:44.158Z,2.63
2018-11-01T07:46:44.170Z,2.62
2018-11-01T07:47:44.111Z,2.50
2018-11-01T07:48:44.928Z,2.59
2018-11-01T07:49:44.336Z,2.61
2018-11-01T07:50:44.105Z,2.66
2018-11-01T07:51:44.201Z,2.59
2018-11-01T07:52:44.081Z,2.74
2018-11-01T07:53:44.042Z,2.69
2018-11-01T07:54:44.056Z,2.63
2018-11-01T07:55:44.026Z,2.69
2018-11-01T07:56:44.061Z,2.62
2018-11-01T07:57:44.046Z,2.65
2018-11-01T07:58:43.986Z,2.71
2018-11-01T07:59:44.026Z,2.71
2018-11-01T08:00:44.079Z,2.69
2018-11-01T08:01:44.026Z,2.77
2018-11-01T08:02:44.435Z,2.68
2018-11-01T08:03:43.980Z,2.66
2018-11-01T08:04:43.967Z,2.76
2018-11-01T08:05:44.208Z,2.81
2018-11-01T08:06:44.929Z,2.79
2018-11-01T08:07:43.970Z,2.80
2018-11-01T08:08:44.029Z,2.83
2018-11-01T08:09:43.904Z,2.74
2018-11-01T08:10:43.862Z,2.73
2018-11-01T08:11:43.983Z,2.83
2018-11-01T08:12:43.884Z,2.83
2018-11-01T08:13:43.833Z,2.79
2018-11-01T08:14:43.895Z,2.73
2018-11-01T08:15:43.814Z,2.66
2018-11-01T08:16:43.794Z,2.61
2018-11-01T08:17:43.783Z,2.59
2018-11-01T08:18:43.776Z,2.59
2018-11-01T08:19:43.998Z,2.68
2018-11-01T08:20:43.900Z,2.62
2018-11-01T08:21:43.774Z,2.66
2018-11-01T08:22:43.730Z,2.55
2018-11-01T08:23:43.755Z,2.63
2018-11-01T08:24:43.896Z,2.63
2018-11-01T08:25:43.745Z,2.58
2018-11-01T08:26:43.679Z,2.53
2018-11-01T08:27:43.800Z,2.68
2018-11-01T08:28:43.665Z,2.63
2018-11-01T08:29:43.769Z,2.61
2018-11-01T08:30:43.673Z,2.53
2018-11-01T08:31:43.626Z,2.66
2018-11-01T08:32:43.622Z,2.59
2018-11-01T08:33:43.611Z,2.69
2018-11-01T08:34:43.700Z,2.62
2018-11-01T08:35:43.867Z,2.59
2018-11-01T08:36:43.634Z,2.62
2018-11-01T08:37:43.587Z,2.68
2018-11-01T08:38:43.562Z,2.65
2018-11-01T08:39:43.581Z,2.62
2018-11-01T08:40:43.530Z,2.76
2018-11-01T08:41:43.571Z,2.71
2018-11-01T08:42:43.503Z,2.66
2018-11-01T08:43:43.502Z,2.74
2018-11-01T08:44:43.542Z,2.61
2018-11-01T08:45:43.609Z,2.80
2018-11-01T08:46:43.469Z,2.80
2018-11-01T08:47:43.452Z,2.81
2018-11-01T08:48:43.462Z,3.01
2018-11-01T08:49:43.439Z,3.01
2018-11-01T08:50:43.507Z,3.07
2018-11-01T08:51:43.592Z,3.02
2018-11-01T08:52:43.467Z,3.15
2018-11-01T08:53:43.397Z,3.20
2018-11-01T08:54:43.374Z,3.33
2018-11-01T08:55:43.413Z,3.39
2018-11-01T08:56:43.407Z,3.46
2018-11-01T08:57:43.888Z,3.44
2018-11-01T08:58:43.347Z,3.44
2018-11-01T08:59:43.371Z,3.49
2018-11-01T09:00:43.370Z,3.53
2018-11-01T09:01:43.322Z,3.60
2018-11-01T09:02:43.342Z,3.53
2018-11-01T09:03:43.283Z,3.57
2018-11-01T09:04:43.321Z,3.54
2018-11-01T09:05:43.304Z,3.31
2018-11-01T09:06:43.313Z,3.37
2018-11-01T09:07:43.460Z,3.49
2018-11-01T09:08:43.254Z,3.50
2018-11-01T09:09:43.223Z,3.57
2018-11-01T09:10:43.240Z,3.74
2018-11-01T09:11:43.242Z,3.93
2018-11-01T09:12:43.271Z,4.17
2018-11-01T09:13:43.210Z,4.11
2018-11-01T09:14:43.198Z,4.11
2018-11-01T09:15:43.251Z,4.04
2018-11-01T09:16:43.147Z,4.18
2018-11-01T09:17:43.195Z,4.18
2018-11-01T09:18:43.152Z,4.16
2018-11-01T09:19:43.146Z,4.26
2018-11-01T09:20:43.198Z,4.31
2018-11-01T09:21:43.092Z,4.18
2018-11-01T09:22:43.119Z,4.25
2018-11-01T09:23:43.074Z,4.42
2018-11-01T09:24:43.077Z,4.68
2018-11-01T09:25:43.135Z,4.79
2018-11-01T09:26:43.083Z,5.06
2018-11-01T09:27:43.021Z,5.26
2018-11-01T09:28:43.008Z,5.45
2018-11-01T09:29:43.057Z,5.41
2018-11-01T09:30:43.051Z,5.26
2018-11-01T09:31:42.999Z,5.41
2018-11-01T09:32:43.050Z,5.49
2018-11-01T09:33:43.001Z,5.49
2018-11-01T09:34:42.999Z,5.77
2018-11-01T09:35:43.429Z,5.73
2018-11-01T09:36:42.946Z,5.85
2018-11-01T09:37:42.972Z,5.83
2018-11-01T09:38:42.959Z,5.78
2018-11-01T09:39:42.895Z,5.74
2018-11-01T09:40:42.943Z,5.85
2018-11-01T09:41:42.893Z,5.66
2018-11-01T09:42:42.869Z,5.48
2018-11-01T09:43:42.891Z,5.42
2018-11-01T09:44:42.835Z,5.29
2018-11-01T09:45:42.881Z,5.33
2018-11-01T09:46:43.254Z,5.30
2018-11-01T09:47:43.190Z,5.26
2018-11-01T09:48:42.862Z,5.30
2018-11-01T09:49:42.785Z,5.20
2018-11-01T09:50:42.816Z,5.23
2018-11-01T09:51:42.770Z,5.52
2018-11-01T09:52:42.786Z,5.55
2018-11-01T09:53:42.755Z,5.55
2018-11-01T09:54:42.732Z,5.52
2018-11-01T09:55:42.936Z,5.55
2018-11-01T09:56:42.712Z,5.60
2018-11-01T09:57:42.717Z,5.35
2018-11-01T09:58:42.692Z,5.37
2018-11-01T09:59:42.685Z,5.49
2018-11-01T10:00:42.757Z,5.44
2018-11-01T10:01:42.662Z,5.49
2018-11-01T10:02:42.647Z,5.45
2018-11-01T10:03:42.636Z,5.67
2018-11-01T10:04:42.632Z,5.75
2018-11-01T10:05:42.732Z,5.70
2018-11-01T10:06:42.860Z,5.66
2018-11-01T10:07:42.596Z,5.56
2018-11-01T10:08:42.577Z,5.48
2018-11-01T10:09:42.590Z,5.49
2018-11-01T10:10:42.930Z,5.42
2018-11-01T10:11:43.672Z,5.49
2018-11-01T10:12:42.629Z,5.27
2018-11-01T10:13:42.540Z,5.27
2018-11-01T10:14:42.541Z,5.15
2018-11-01T10:15:42.838Z,5.05
2018-11-01T10:16:42.793Z,4.83
2018-11-01T10:17:43.015Z,4.86
2018-11-01T10:18:42.484Z,4.79
2018-11-01T10:19:42.468Z,4.83
2018-11-01T10:20:42.529Z,4.79
2018-11-01T10:21:42.504Z,4.84
2018-11-01T10:22:42.601Z,4.90
2018-11-01T10:23:42.450Z,5.08
2018-11-01T10:24:42.407Z,5.14
2018-11-01T10:25:42.466Z,5.20
2018-11-01T10:26:42.853Z,5.01
2018-11-01T10:27:42.475Z,5.01
2018-11-01T10:28:42.375Z,4.99
2018-11-01T10:29:42.357Z,4.94
2018-11-01T10:30:42.374Z,5.06
2018-11-01T10:31:42.367Z,5.15
2018-11-01T10:32:42.371Z,5.27
2018-11-01T10:33:42.381Z,5.04
2018-11-01T10:34:42.317Z,4.90
2018-11-01T10:35:42.295Z,4.84
2018-11-01T10:36:42.387Z,4.54
2018-11-01T10:37:42.267Z,4.59
2018-11-01T10:38:42.264Z,4.56
2018-11-01T10:39:42.305Z,4.64
2018-11-01T10:40:42.316Z,4.86
2018-11-01T10:41:42.274Z,4.93
2018-11-01T10:42:42.233Z,4.90
2018-11-01T10:43:42.205Z,4.94
2018-11-01T10:44:42.256Z,4.80
2018-11-01T10:45:42.218Z,4.93
2018-11-01T10:46:42.207Z,5.06
2018-11-01T10:47:42.350Z,5.23
2018-11-01T10:48:42.153Z,5.56
2018-11-01T10:49:42.192Z,5.95
2018-11-01T10:50:42.153Z,6.10
2018-11-01T10:51:42.153Z,6.35
2018-11-01T10:52:42.105Z,6.42
2018-11-01T10:53:42.275Z,6.81
2018-11-01T10:54:42.240Z,6.78
2018-11-01T10:55:42.080Z,6.91
2018-11-01T10:56:42.108Z,7.19
2018-11-01T10:57:42.088Z,6.75
2018-11-01T10:58:42.101Z,6.54
2018-11-01T10:59:42.064Z,6.69
2018-11-01T11:00:42.105Z,7.00
2018-11-01T11:01:42.065Z,7.55
2018-11-01T11:02:42.018Z,7.48
2018-11-01T11:03:42.054Z,7.79
2018-11-01T11:04:42.003Z,7.79
2018-11-01T11:05:42.015Z,7.91
2018-11-01T11:06:42.851Z,8.29
2018-11-01T11:07:41.993Z,8.67
2018-11-01T11:08:41.936Z,9.35
2018-11-01T11:09:41.970Z,9.83
2018-11-01T11:10:42.336Z,8.55
2018-11-01T11:11:41.914Z,7.57
2018-11-01T11:12:41.891Z,7.77
2018-11-01T11:13:42.098Z,7.67
2018-11-01T11:14:42.071Z,7.36
2018-11-01T11:15:41.858Z,7.08
2018-11-01T11:16:41.910Z,7.50
2018-11-01T11:17:41.850Z,7.42
2018-11-01T11:18:41.909Z,6.45
2018-11-01T11:19:41.837Z,5.80
2018-11-01T11:20:42.192Z,5.77
2018-11-01T11:21:42.328Z,6.55
2018-11-01T11:22:41.816Z,6.83
2018-11-01T11:23:41.769Z,7.26
2018-11-01T11:24:41.798Z,7.42
2018-11-01T11:25:41.827Z,8.00
2018-11-01T11:26:41.811Z,8.64
2018-11-01T11:27:41.745Z,9.06
2018-11-01T11:28:41.738Z,9.77
2018-11-01T11:29:41.717Z,9.17
2018-11-01T11:30:41.993Z,8.88
2018-11-01T11:31:41.739Z,9.15
2018-11-01T11:32:41.670Z,8.93
2018-11-01T11:33:41.673Z,8.89
2018-11-01T11:34:41.719Z,8.85
2018-11-01T11:35:41.745Z,9.04
2018-11-01T11:36:41.635Z,9.30
2018-11-01T11:37:41.659Z,9.17
2018-11-01T11:38:41.631Z,9.32
2018-11-01T11:39:41.750Z,9.30
2018-11-01T11:40:41.606Z,8.63
2018-11-01T11:41:41.571Z,8.27
2018-11-01T11:42:41.612Z,8.28
2018-11-01T11:43:41.559Z,8.80
2018-11-01T11:44:41.674Z,8.78
2018-11-01T11:45:41.565Z,8.49
2018-11-01T11:46:41.539Z,8.24
2018-11-01T11:47:41.546Z,8.03
2018-11-01T11:48:41.499Z,7.44
2018-11-01T11:49:41.538Z,7.21
2018-11-01T11:50:41.493Z,7.54
2018-11-01T11:51:41.545Z,7.55
2018-11-01T11:52:41.643Z,7.77
2018-11-01T11:53:41.484Z,8.10
2018-11-01T11:54:41.448Z,8.17
2018-11-01T11:55:41.459Z,8.21
2018-11-01T11:56:41.435Z,7.92
2018-11-01T11:57:41.517Z,7.58
2018-11-01T11:58:41.438Z,7.58
2018-11-01T11:59:41.444Z,7.63
2018-11-01T12:00:41.391Z,8.13
2018-11-01T12:01:41.381Z,8.36
2018-11-01T12:02:41.489Z,8.31
2018-11-01T12:03:41.818Z,7.73
2018-11-01T12:04:41.359Z,7.51
2018-11-01T12:05:41.405Z,7.70
2018-11-01T12:06:41.335Z,8.64
2018-11-01T12:07:41.342Z,9.19
2018-11-01T12:08:41.330Z,8.55
2018-11-01T12:09:41.277Z,7.96
2018-11-01T12:10:41.308Z,8.00
2018-11-01T12:11:41.277Z,8.65
2018-11-01T12:12:41.294Z,9.00
2018-11-01T12:13:41.239Z,9.34
2018-11-01T12:14:41.266Z,9.63
2018-11-01T12:15:41.321Z,9.80
2018-11-01T12:16:41.220Z,8.80
2018-11-01T12:17:41.190Z,8.40
2018-11-01T12:18:41.250Z,8.63
2018-11-01T12:19:41.175Z,9.04
2018-11-01T12:20:41.250Z,9.12
2018-11-01T12:21:41.141Z,9.19
2018-11-01T12:22:41.156Z,9.88
2018-11-01T12:23:41.148Z,10.34
2018-11-01T12:24:41.122Z,10.60
2018-11-01T12:25:41.304Z,10.75
2018-11-01T12:26:41.101Z,10.83
2018-11-01T12:27:41.092Z,10.70
2018-11-01T12:28:41.204Z,10.38
2018-11-01T12:29:41.064Z,10.35
2018-11-01T12:30:41.167Z,10.46
2018-11-01T12:31:41.042Z,10.66
2018-11-01T12:32:41.040Z,10.51
2018-11-01T12:33:41.078Z,9.96
2018-11-01T12:34:41.007Z,9.85
2018-11-01T12:35:41.537Z,9.73
2018-11-01T12:36:41.017Z,9.45
2018-11-01T12:37:40.985Z,9.12
2018-11-01T12:38:40.959Z,9.10
2018-11-01T12:39:40.985Z,9.13
2018-11-01T12:40:41.009Z,9.55
2018-11-01T12:41:41.170Z,9.50
2018-11-01T12:42:40.990Z,9.06
2018-11-01T12:43:40.930Z,8.67
2018-11-01T12:44:40.927Z,8.68
2018-11-01T12:45:40.941Z,8.82
2018-11-01T12:46:40.942Z,9.22
2018-11-01T12:47:40.865Z,9.89
2018-11-01T12:48:40.865Z,10.32
2018-11-01T12:49:40.935Z,10.06
2018-11-01T12:50:40.874Z,10.06
2018-11-01T12:51:40.882Z,10.31
2018-11-01T12:52:40.821Z,10.29
2018-11-01T12:53:40.821Z,9.95
2018-11-01T12:54:40.802Z,9.42
2018-11-01T12:55:40.820Z,9.12
2018-11-01T12:56:40.839Z,9.01
2018-11-01T12:57:40.759Z,8.91
2018-11-01T12:58:40.768Z,9.08
2018-11-01T12:59:40.743Z,9.65
2018-11-01T13:00:40.855Z,10.35
2018-11-01T13:01:40.782Z,10.46
2018-11-01T13:02:40.956Z,10.49
2018-11-01T13:03:40.727Z,9.55
2018-11-01T13:04:40.727Z,8.82
2018-11-01T13:05:40.699Z,8.40
2018-11-01T13:06:40.752Z,8.14
2018-11-01T13:07:40.693Z,7.88
2018-11-01T13:08:40.657Z,7.86
2018-11-01T13:09:40.814Z,7.94
2018-11-01T13:10:40.717Z,8.04
2018-11-01T13:11:40.669Z,8.36
2018-11-01T13:12:40.662Z,8.64
2018-11-01T13:13:40.689Z,8.86
2018-11-01T13:14:40.586Z,8.86
2018-11-01T13:15:40.566Z,9.01
2018-11-01T13:16:40.634Z,9.06
2018-11-01T13:17:40.609Z,8.83
2018-11-01T13:18:40.609Z,8.82